createdAt,value
2019-06-07T00:01:30.228Z,15.80
2019-06-07T00:03:57.112Z,15.70
2019-06-07T00:06:25.699Z,15.50
2019-06-07T00:08:52.978Z,15.50
2019-06-07T00:11:20.660Z,15.40
2019-06-07T00:13:47.609Z,15.30
2019-06-07T00:16:19.084Z,15.30
2019-06-07T00:18:43.048Z,15.30
2019-06-07T00:21:10.031Z,15.40
2019-06-07T00:23:36.989Z,15.50
2019-06-07T00:26:04.053Z,15.50
2019-06-07T00:28:30.883Z,15.60
2019-06-07T00:30:58.217Z,15.50
2019-06-07T00:33:25.312Z,15.40
2019-06-07T00:35:52.235Z,15.10
2019-06-07T00:38:21.728Z,15.00
2019-06-07T00:40:48.061Z,15.00
2019-06-07T00:43:17.585Z,15.10
2019-06-07T00:45:43.658Z,15.20
2019-06-07T00:48:16.049Z,15.20
2019-06-07T00:50:39.348Z,15.10
2019-06-07T00:53:17.550Z,15.00
2019-06-07T00:55:34.787Z,15.00
2019-06-07T00:58:02.544Z,14.90
2019-06-07T01:00:30.906Z,14.80
2019-06-07T01:02:57.755Z,14.70
2019-06-07T01:05:31.097Z,14.80
2019-06-07T01:07:53.177Z,14.90
2019-06-07T01:10:46.482Z,14.90
2019-06-07T01:12:48.885Z,14.90
2019-06-07T01:15:20.564Z,14.90
2019-06-07T01:18:32.651Z,14.80
2019-06-07T01:20:17.336Z,14.60
2019-06-07T01:22:45.367Z,14.60
2019-06-07T01:25:12.296Z,14.60
2019-06-07T01:27:39.092Z,14.50
2019-06-07T01:30:11.233Z,14.40
2019-06-07T01:32:38.067Z,14.40
2019-06-07T01:35:06.703Z,14.40
2019-06-07T01:37:33.533Z,14.40
2019-06-07T01:40:00.328Z,14.40
2019-06-07T01:42:29.523Z,14.40
2019-06-07T01:44:55.744Z,14.30
2019-06-07T01:47:26.582Z,14.10
2019-06-07T01:49:51.232Z,14.10
2019-06-07T01:52:19.519Z,14.20
2019-06-07T01:54:57.962Z,14.20
2019-06-07T01:57:34.268Z,14.10
2019-06-07T01:59:44.706Z,14.00
2019-06-07T02:02:11.557Z,14.00
2019-06-07T02:04:38.485Z,14.00
2019-06-07T02:07:05.270Z,13.90
2019-06-07T02:09:32.367Z,13.80
2019-06-07T02:11:59.321Z,13.80
2019-06-07T02:14:29.817Z,13.70
2019-06-07T02:16:54.757Z,13.60
2019-06-07T02:19:22.021Z,13.60
2019-06-07T02:21:49.143Z,13.60
2019-06-07T02:24:15.988Z,13.70
2019-06-07T02:26:42.821Z,13.60
2019-06-07T02:29:09.604Z,13.60
2019-06-07T02:31:39.710Z,13.60
2019-06-07T02:34:05.083Z,13.50
2019-06-07T02:36:39.241Z,13.50
2019-06-07T02:39:00.534Z,13.40
2019-06-07T02:41:35.331Z,13.40
2019-06-07T02:43:56.416Z,13.30
2019-06-07T02:46:32.527Z,13.20
2019-06-07T02:48:53.381Z,13.20
2019-06-07T02:51:20.227Z,13.20
2019-06-07T02:53:47.049Z,13.30
2019-06-07T02:58:42.476Z,13.20
2019-06-07T03:01:10.030Z,13.20
2019-06-07T03:03:39.952Z,13.20
2019-06-07T03:06:07.253Z,13.20
2019-06-07T03:08:36.725Z,13.20
2019-06-07T03:11:04.764Z,13.20
2019-06-07T03:13:34.906Z,13.10
2019-06-07T03:16:04.493Z,12.90
2019-06-07T03:18:49.729Z,12.80
2019-06-07T03:21:21.985Z,12.90
2019-06-07T03:23:54.352Z,13.00
2019-06-07T03:26:23.857Z,13.00
2019-06-07T03:28:50.653Z,12.90
2019-06-07T03:31:17.491Z,12.70
2019-06-07T03:33:45.521Z,12.60
2019-06-07T03:36:23.364Z,12.70
2019-06-07T03:38:41.253Z,12.80
2019-06-07T03:41:08.088Z,12.70
2019-06-07T03:43:37.793Z,12.80
2019-06-07T03:46:03.608Z,12.90
2019-06-07T03:48:32.283Z,13.00
2019-06-07T03:51:04.469Z,13.10
2019-06-07T03:53:30.483Z,13.10
2019-06-07T03:55:57.069Z,13.10
2019-06-07T03:58:34.708Z,12.90
2019-06-07T04:00:52.494Z,12.90
2019-06-07T04:03:33.397Z,12.90
2019-06-07T04:05:49.087Z,13.00
2019-06-07T04:08:15.995Z,13.10
2019-06-07T04:10:57.996Z,13.00
2019-06-07T04:13:11.510Z,13.00
2019-06-07T04:15:41.222Z,13.00
2019-06-07T04:18:07.070Z,13.00
2019-06-07T04:20:34.552Z,13.10
2019-06-07T04:23:02.588Z,13.10
2019-06-07T04:25:31.757Z,13.10
2019-06-07T04:27:58.109Z,13.10
2019-06-07T04:30:45.104Z,13.10
2019-06-07T04:33:13.493Z,13.20
2019-06-07T04:35:42.888Z,13.20
2019-06-07T04:38:11.273Z,13.20
2019-06-07T04:40:40.008Z,13.20
2019-06-07T04:43:07.892Z,13.20
2019-06-07T04:45:41.822Z,13.30
2019-06-07T04:48:05.120Z,13.30
2019-06-07T04:50:35.364Z,13.40
2019-06-07T04:53:00.897Z,13.50
2019-06-07T04:55:29.053Z,13.50
2019-06-07T04:57:56.340Z,13.60
2019-06-07T05:00:58.768Z,13.60
2019-06-07T05:03:05.345Z,13.70
2019-06-07T05:05:34.361Z,13.90
2019-06-07T05:08:07.470Z,14.00
2019-06-07T05:10:30.743Z,14.10
2019-06-07T05:12:58.849Z,14.10
2019-06-07T05:15:25.788Z,14.20
2019-06-07T05:17:52.569Z,14.30
2019-06-07T05:20:19.722Z,14.40
2019-06-07T05:22:46.502Z,14.40
2019-06-07T05:25:13.990Z,14.70
2019-06-07T05:27:46.719Z,14.90
2019-06-07T05:30:58.537Z,15.00
2019-06-07T05:32:49.321Z,15.20
2019-06-07T05:35:16.162Z,15.30
2019-06-07T05:37:45.840Z,15.40
2019-06-07T05:40:13.617Z,15.70
2019-06-07T05:42:43.307Z,15.90
2019-06-07T05:45:09.113Z,16.20
2019-06-07T05:47:40.329Z,16.20
2019-06-07T05:50:05.714Z,16.40
2019-06-07T05:52:33.220Z,16.60
2019-06-07T05:55:00.864Z,16.60
2019-06-07T05:57:27.723Z,16.70
2019-06-07T05:59:54.595Z,17.00
2019-06-07T06:02:24.574Z,17.00
2019-06-07T06:04:50.088Z,17.20
2019-06-07T06:07:16.898Z,17.20
2019-06-07T06:09:45.956Z,17.40
2019-06-07T06:12:12.324Z,17.70
2019-06-07T06:14:42.252Z,18.00
2019-06-07T06:17:08.221Z,17.80
2019-06-07T06:19:36.819Z,17.40
2019-06-07T06:22:03.667Z,17.40
2019-06-07T06:24:30.493Z,17.80
2019-06-07T06:27:15.314Z,18.10
2019-06-07T06:29:25.924Z,18.40
2019-06-07T06:32:39.480Z,18.70
2019-06-07T06:34:21.408Z,19.00
2019-06-07T06:36:50.350Z,19.40
2019-06-07T06:39:16.906Z,19.70
2019-06-07T06:41:58.625Z,19.70
2019-06-07T06:44:13.469Z,19.10
2019-06-07T06:46:44.836Z,19.10
2019-06-07T06:49:08.888Z,19.40
2019-06-07T06:51:35.674Z,19.50
2019-06-07T06:54:02.756Z,19.50
2019-06-07T06:56:29.554Z,19.70
2019-06-07T07:01:24.976Z,19.20
2019-06-07T07:04:11.262Z,19.00
2019-06-07T07:06:26.285Z,19.00
2019-06-07T07:08:52.783Z,19.20
2019-06-07T07:11:23.250Z,19.60
2019-06-07T07:13:49.893Z,19.60
2019-06-07T07:16:16.153Z,19.50
2019-06-07T07:18:44.246Z,19.70
2019-06-07T07:21:11.588Z,19.90
2019-06-07T07:23:38.445Z,19.90
2019-06-07T07:26:05.234Z,20.10
2019-06-07T07:28:32.062Z,20.40
2019-06-07T07:30:58.929Z,20.20
2019-06-07T07:33:25.812Z,20.00
2019-06-07T07:36:15.705Z,20.00
2019-06-07T07:38:22.132Z,20.00
2019-06-07T07:41:01.541Z,20.10
2019-06-07T07:43:17.698Z,20.00
2019-06-07T07:45:50.563Z,20.00
2019-06-07T07:48:18.017Z,20.30
2019-06-07T07:50:45.117Z,20.70
2019-06-07T07:53:11.052Z,21.00
2019-06-07T07:55:37.930Z,20.60
2019-06-07T07:58:04.766Z,20.70
2019-06-07T08:00:52.374Z,21.00
2019-06-07T08:03:04.441Z,21.20
2019-06-07T08:05:42.480Z,21.20
2019-06-07T08:08:01.462Z,20.70
2019-06-07T08:10:28.915Z,20.80
2019-06-07T08:13:19.555Z,20.60
2019-06-07T08:15:24.376Z,20.60
2019-06-07T08:17:56.006Z,20.50
2019-06-07T08:20:19.844Z,20.40
2019-06-07T08:22:47.673Z,20.80
2019-06-07T08:25:14.989Z,21.00
2019-06-07T08:27:41.812Z,21.00
2019-06-07T08:30:46.664Z,21.10
2019-06-07T08:32:38.713Z,21.20
2019-06-07T08:35:07.009Z,21.60
2019-06-07T08:38:14.109Z,21.70
2019-06-07T08:40:08.532Z,22.00
2019-06-07T08:42:37.297Z,22.10
2019-06-07T08:45:06.592Z,22.20
2019-06-07T08:47:33.433Z,22.50
2019-06-07T08:50:06.296Z,22.60
2019-06-07T08:52:28.885Z,22.70
2019-06-07T08:54:57.825Z,23.10
2019-06-07T08:57:24.272Z,23.50
2019-06-07T08:59:52.892Z,23.60
2019-06-07T09:02:23.847Z,22.90
2019-06-07T09:04:48.429Z,23.10
2019-06-07T09:07:19.924Z,23.50
2019-06-07T09:09:43.897Z,23.70
2019-06-07T09:12:11.699Z,23.50
2019-06-07T09:14:58.656Z,23.60
2019-06-07T09:17:11.706Z,23.60
2019-06-07T09:19:36.024Z,23.90
2019-06-07T09:22:08.221Z,24.20
2019-06-07T09:24:31.471Z,23.50
2019-06-07T09:27:00.405Z,23.60
2019-06-07T09:29:27.056Z,23.80
2019-06-07T09:31:54.018Z,23.90
2019-06-07T09:34:20.786Z,24.10
2019-06-07T09:36:47.795Z,23.80
2019-06-07T09:39:14.618Z,23.60
2019-06-07T09:41:47.495Z,23.60
2019-06-07T09:44:23.694Z,24.00
2019-06-07T09:46:38.641Z,23.80
2019-06-07T09:49:21.131Z,23.90
2019-06-07T09:51:34.113Z,24.10
2019-06-07T09:54:06.081Z,24.00
2019-06-07T09:56:29.624Z,24.00
2019-06-07T09:58:59.550Z,24.30
2019-06-07T10:01:25.257Z,24.10
2019-06-07T10:03:52.142Z,24.20
2019-06-07T10:06:18.959Z,24.60
2019-06-07T10:11:14.392Z,25.10
2019-06-07T10:13:41.249Z,25.10
2019-06-07T10:16:08.852Z,25.30
2019-06-07T10:18:35.780Z,25.70
2019-06-07T10:21:03.723Z,25.80
2019-06-07T10:23:30.839Z,26.00
2019-06-07T10:25:57.668Z,25.80
2019-06-07T10:28:24.528Z,25.50
2019-06-07T10:30:51.448Z,25.60
2019-06-07T10:33:18.220Z,25.80
2019-06-07T10:35:45.013Z,25.80
2019-06-07T10:38:11.849Z,25.80
2019-06-07T10:40:39.082Z,25.60
2019-06-07T10:43:07.104Z,25.40
2019-06-07T10:45:34.110Z,25.60
2019-06-07T10:48:01.494Z,25.70
2019-06-07T10:50:28.545Z,25.60
2019-06-07T10:52:55.333Z,25.70
2019-06-07T10:55:22.164Z,26.00
2019-06-07T10:57:48.961Z,26.10
2019-06-07T11:00:17.933Z,26.00
2019-06-07T11:02:44.788Z,26.10
2019-06-07T11:05:12.390Z,26.00
2019-06-07T11:07:40.037Z,26.10
2019-06-07T11:10:13.378Z,26.20
2019-06-07T11:12:36.105Z,26.40
2019-06-07T11:15:06.621Z,26.60
2019-06-07T11:17:33.551Z,26.80
2019-06-07T11:20:00.396Z,26.90
2019-06-07T11:22:27.238Z,26.90
2019-06-07T11:24:54.025Z,26.90
2019-06-07T11:27:20.856Z,27.10
2019-06-07T11:29:47.651Z,27.20
2019-06-07T11:32:14.681Z,27.60
2019-06-07T11:34:41.637Z,27.70
2019-06-07T11:37:09.454Z,27.70
2019-06-07T11:39:37.077Z,27.90
2019-06-07T11:42:03.857Z,28.00
2019-06-07T11:44:33.577Z,28.00
2019-06-07T11:46:59.684Z,28.30
2019-06-07T11:49:26.584Z,28.40
2019-06-07T11:51:53.371Z,28.70
2019-06-07T11:54:20.702Z,28.50
2019-06-07T11:56:47.689Z,28.60
2019-06-07T11:59:15.332Z,28.20
2019-06-07T12:01:42.355Z,28.30
2019-06-07T12:04:09.774Z,28.30
2019-06-07T12:06:36.561Z,28.50
2019-06-07T12:09:08.430Z,28.60
2019-06-07T12:11:35.517Z,28.70
2019-06-07T12:14:02.741Z,28.80
2019-06-07T12:16:29.588Z,29.00
2019-06-07T12:18:56.422Z,29.00
2019-06-07T12:21:23.218Z,29.20
2019-06-07T12:23:50.040Z,29.30
2019-06-07T12:26:16.884Z,29.50
2019-06-07T12:28:43.724Z,29.50
2019-06-07T12:31:10.871Z,29.30
2019-06-07T12:33:37.745Z,29.30
2019-06-07T12:36:05.385Z,29.30
2019-06-07T12:38:32.169Z,29.40
2019-06-07T12:40:59.012Z,29.40
2019-06-07T12:43:25.846Z,29.30
2019-06-07T12:45:52.727Z,29.30
2019-06-07T12:48:23.754Z,29.20
2019-06-07T12:50:48.117Z,29.30
2019-06-07T12:53:15.635Z,29.20
2019-06-07T12:55:42.649Z,29.30
2019-06-07T12:58:09.581Z,29.20
2019-06-07T13:00:39.072Z,29.40
2019-06-07T13:03:05.909Z,29.40
2019-06-07T13:05:32.710Z,29.40
2019-06-07T13:07:59.612Z,29.30
2019-06-07T13:10:26.405Z,29.50
2019-06-07T13:12:53.246Z,29.30
2019-06-07T13:15:21.965Z,29.40
2019-06-07T13:17:48.833Z,29.60
2019-06-07T13:20:18.076Z,29.50
2019-06-07T13:22:45.142Z,29.30
2019-06-07T13:25:13.324Z,29.60
2019-06-07T13:27:40.172Z,29.70
2019-06-07T13:30:10.294Z,29.90
2019-06-07T13:32:37.341Z,29.60
2019-06-07T13:35:05.596Z,29.70
2019-06-07T13:37:32.380Z,29.80
2019-06-07T13:39:59.217Z,29.70
2019-06-07T13:42:26.521Z,29.70
2019-06-07T13:44:53.466Z,29.70
2019-06-07T13:47:21.167Z,29.90
2019-06-07T13:49:48.452Z,29.70
2019-06-07T13:52:16.511Z,29.80
2019-06-07T13:54:43.301Z,29.90
2019-06-07T13:57:10.126Z,29.80
2019-06-07T13:59:37.224Z,30.10
2019-06-07T14:02:04.022Z,30.20
2019-06-07T14:04:30.995Z,30.40
2019-06-07T14:06:57.971Z,30.40
2019-06-07T14:09:25.255Z,30.60
2019-06-07T14:11:52.138Z,30.40
2019-06-07T14:14:20.110Z,30.40
2019-06-07T14:16:47.085Z,30.40
2019-06-07T14:19:13.992Z,30.30
2019-06-07T14:21:40.922Z,30.00
2019-06-07T14:24:07.741Z,30.30
2019-06-07T14:26:34.533Z,30.30
2019-06-07T14:29:01.313Z,30.10
2019-06-07T14:31:28.193Z,30.10
2019-06-07T14:33:55.016Z,30.20
2019-06-07T14:36:22.707Z,29.90
2019-06-07T14:38:49.707Z,29.90
2019-06-07T14:41:16.536Z,29.90
2019-06-07T14:43:43.400Z,29.90
2019-06-07T14:46:10.261Z,29.80
2019-06-07T14:48:37.073Z,29.70
2019-06-07T14:51:03.929Z,29.70
2019-06-07T14:53:30.946Z,29.50
2019-06-07T14:55:57.877Z,29.60
2019-06-07T14:58:25.033Z,29.90
2019-06-07T15:00:51.897Z,29.70
2019-06-07T15:03:18.745Z,29.30
2019-06-07T15:05:45.692Z,29.20
2019-06-07T15:08:12.437Z,29.20
2019-06-07T15:10:39.455Z,29.20
2019-06-07T15:13:06.397Z,29.30
2019-06-07T15:15:34.597Z,29.40
2019-06-07T15:18:01.799Z,29.30
2019-06-07T15:20:30.295Z,29.20
2019-06-07T15:22:57.252Z,29.10
2019-06-07T15:25:24.081Z,29.00
2019-06-07T15:27:50.872Z,28.90
2019-06-07T15:30:18.184Z,28.80
2019-06-07T15:32:44.997Z,28.70
2019-06-07T15:35:12.034Z,28.60
2019-06-07T15:37:39.378Z,28.60
2019-06-07T15:40:07.293Z,28.40
2019-06-07T15:42:46.096Z,28.30
2019-06-07T15:45:07.449Z,28.10
2019-06-07T15:47:35.864Z,28.10
2019-06-07T15:50:05.834Z,28.00
2019-06-07T15:52:33.667Z,27.90
2019-06-07T15:55:00.456Z,27.70
2019-06-07T15:57:27.354Z,27.80
2019-06-07T15:59:54.129Z,27.70
2019-06-07T16:02:20.950Z,27.50
2019-06-07T16:04:47.792Z,27.50
2019-06-07T16:07:14.585Z,27.40
2019-06-07T16:09:42.749Z,27.40
2019-06-07T16:12:09.721Z,27.10
2019-06-07T16:14:36.948Z,27.10
2019-06-07T16:17:03.881Z,27.10
2019-06-07T16:19:30.725Z,27.10
2019-06-07T16:21:57.558Z,27.00
2019-06-07T16:24:24.878Z,27.00
2019-06-07T16:26:51.829Z,27.00
2019-06-07T16:29:18.717Z,26.80
2019-06-07T16:31:45.502Z,26.70
2019-06-07T16:34:12.337Z,26.60
2019-06-07T16:36:40.382Z,26.60
2019-06-07T16:39:08.038Z,26.60
2019-06-07T16:41:36.376Z,26.60
2019-06-07T16:44:03.741Z,26.50
2019-06-07T16:46:30.579Z,26.50
2019-06-07T16:48:57.409Z,26.50
2019-06-07T16:51:24.193Z,26.50
2019-06-07T16:53:51.024Z,26.30
2019-06-07T16:56:17.869Z,26.30
2019-06-07T16:58:44.665Z,26.20
2019-06-07T17:01:11.511Z,26.20
2019-06-07T17:03:39.301Z,26.20
2019-06-07T17:06:06.416Z,26.10
2019-06-07T17:08:33.194Z,26.10
2019-06-07T17:10:59.989Z,26.10
2019-06-07T17:13:33.265Z,26.10
2019-06-07T17:15:55.449Z,26.20
2019-06-07T17:18:22.281Z,26.10
2019-06-07T17:20:49.403Z,26.00
2019-06-07T17:23:16.409Z,26.00
2019-06-07T17:25:43.517Z,25.90
2019-06-07T17:28:10.435Z,25.90
2019-06-07T17:30:37.282Z,25.80
2019-06-07T17:33:04.113Z,25.70
2019-06-07T17:35:30.891Z,25.80
2019-06-07T17:37:57.732Z,25.60
2019-06-07T17:40:24.516Z,25.60
2019-06-07T17:42:51.355Z,25.50
2019-06-07T17:45:18.479Z,25.50
2019-06-07T17:47:46.000Z,25.50
2019-06-07T17:50:13.109Z,25.40
2019-06-07T17:52:39.885Z,25.40
2019-06-07T17:55:08.248Z,25.40
2019-06-07T17:57:35.040Z,25.50
2019-06-07T18:00:27.190Z,25.50
2019-06-07T18:02:30.662Z,25.50
2019-06-07T18:04:57.453Z,25.50
2019-06-07T18:07:26.301Z,25.50
2019-06-07T18:09:54.398Z,25.40
2019-06-07T18:12:21.344Z,25.30
2019-06-07T18:14:48.125Z,25.30
2019-06-07T18:17:14.949Z,25.30
2019-06-07T18:19:41.821Z,25.30
2019-06-07T18:22:08.653Z,25.30
2019-06-07T18:24:35.495Z,25.30
2019-06-07T18:27:02.365Z,25.30
2019-06-07T18:29:29.197Z,25.20
2019-06-07T18:31:55.986Z,25.30
2019-06-07T18:34:22.804Z,25.20
2019-06-07T18:36:50.923Z,25.10
2019-06-07T18:39:17.939Z,25.00
2019-06-07T18:41:44.764Z,25.00
2019-06-07T18:44:21.152Z,24.90
2019-06-07T18:46:40.402Z,24.80
2019-06-07T18:49:07.229Z,24.80
2019-06-07T18:51:34.020Z,24.80
2019-06-07T18:54:00.866Z,24.80
2019-06-07T18:56:27.634Z,24.70
2019-06-07T18:58:55.323Z,24.70
2019-06-07T19:01:22.261Z,24.70
2019-06-07T19:03:50.280Z,24.70
2019-06-07T19:06:17.334Z,24.60
2019-06-07T19:08:44.244Z,24.60
2019-06-07T19:11:12.205Z,24.50
2019-06-07T19:13:39.094Z,24.40
2019-06-07T19:16:06.041Z,24.30
2019-06-07T19:18:32.943Z,24.20
2019-06-07T19:21:00.641Z,24.10
2019-06-07T19:23:27.733Z,24.00
2019-06-07T19:25:54.711Z,23.90
2019-06-07T19:28:21.758Z,23.90
2019-06-07T19:30:48.676Z,23.90
2019-06-07T19:33:15.633Z,23.80
2019-06-07T19:35:42.487Z,23.70
2019-06-07T19:38:10.126Z,23.30
2019-06-07T19:40:36.992Z,23.10
2019-06-07T19:43:04.101Z,23.20
2019-06-07T19:45:31.792Z,23.30
2019-06-07T19:47:58.801Z,23.40
2019-06-07T19:50:25.684Z,23.30
2019-06-07T19:52:53.110Z,23.10
2019-06-07T19:55:20.052Z,22.90
2019-06-07T19:57:49.975Z,22.70
2019-06-07T20:00:19.852Z,22.60
2019-06-07T20:02:46.702Z,22.60
2019-06-07T20:05:14.684Z,22.60
2019-06-07T20:07:41.876Z,22.50
2019-06-07T20:10:09.674Z,22.50
2019-06-07T20:12:37.501Z,22.60
2019-06-07T20:15:27.067Z,22.60
2019-06-07T20:17:36.297Z,22.30
2019-06-07T20:20:05.197Z,22.50
2019-06-07T20:22:32.031Z,22.70
2019-06-07T20:24:58.894Z,22.70
2019-06-07T20:27:25.750Z,22.70
2019-06-07T20:29:52.548Z,22.60
2019-06-07T20:32:19.336Z,22.40
2019-06-07T20:34:46.162Z,22.30
2019-06-07T20:37:12.979Z,22.30
2019-06-07T20:39:39.779Z,22.30
2019-06-07T20:42:07.854Z,22.30
2019-06-07T20:44:34.800Z,22.30
2019-06-07T20:47:02.177Z,22.30
2019-06-07T20:49:29.089Z,22.30
2019-06-07T20:51:55.940Z,22.30
2019-06-07T20:54:22.733Z,22.20
2019-06-07T20:56:49.685Z,22.10
2019-06-07T20:59:16.520Z,22.00
2019-06-07T21:01:43.349Z,21.80
2019-06-07T21:04:10.186Z,21.80
2019-06-07T21:06:36.974Z,21.80
2019-06-07T21:09:05.997Z,21.80
2019-06-07T21:11:32.777Z,21.90
2019-06-07T21:13:59.944Z,22.00
2019-06-07T21:16:26.908Z,22.00
2019-06-07T21:18:53.732Z,22.10
2019-06-07T21:21:20.569Z,22.20
2019-06-07T21:23:47.701Z,22.30
2019-06-07T21:26:14.868Z,22.20
2019-06-07T21:28:41.681Z,22.20
2019-06-07T21:31:08.461Z,22.00
2019-06-07T21:33:35.298Z,21.40
2019-06-07T21:36:04.417Z,20.90
2019-06-07T21:38:30.740Z,20.40
2019-06-07T21:40:57.615Z,20.00
2019-06-07T21:43:24.405Z,19.80
2019-06-07T21:46:04.399Z,19.60
2019-06-07T21:48:19.825Z,19.30
2019-06-07T21:50:46.608Z,18.80
2019-06-07T21:53:13.639Z,18.50
2019-06-07T21:55:40.416Z,18.30
2019-06-07T21:58:07.253Z,18.10
2019-06-07T22:00:56.224Z,18.10
2019-06-07T22:03:23.154Z,17.90
2019-06-07T22:05:49.944Z,17.80
2019-06-07T22:08:16.759Z,17.60
2019-06-07T22:10:43.536Z,17.50
2019-06-07T22:13:10.365Z,17.40
2019-06-07T22:15:37.623Z,17.40
2019-06-07T22:18:04.600Z,17.30
2019-06-07T22:20:31.466Z,17.30
2019-06-07T22:22:58.253Z,17.10
2019-06-07T22:25:25.082Z,17.00
2019-06-07T22:27:51.865Z,17.00
2019-06-07T22:30:18.837Z,16.90
2019-06-07T22:32:45.675Z,16.80
2019-06-07T22:35:13.008Z,16.80
2019-06-07T22:37:39.990Z,16.80
2019-06-07T22:40:08.322Z,16.60
2019-06-07T22:42:35.619Z,16.50
2019-06-07T22:45:03.753Z,16.50
2019-06-07T22:47:30.585Z,16.40
2019-06-07T22:49:57.376Z,16.40
2019-06-07T22:52:24.211Z,16.40
2019-06-07T22:54:50.988Z,16.40
2019-06-07T22:57:19.630Z,16.50
2019-06-07T22:59:46.456Z,16.40
2019-06-07T23:02:14.583Z,16.40
2019-06-07T23:04:41.456Z,16.40
2019-06-07T23:07:08.863Z,16.60
2019-06-07T23:09:35.807Z,16.50
2019-06-07T23:12:02.692Z,16.60
2019-06-07T23:14:29.525Z,16.50
2019-06-07T23:16:56.428Z,16.30
2019-06-07T23:19:23.316Z,16.10
2019-06-07T23:21:50.088Z,16.00
2019-06-07T23:24:16.921Z,15.90
2019-06-07T23:26:43.708Z,15.80
2019-06-07T23:29:10.532Z,15.90
2019-06-07T23:31:37.318Z,15.90
2019-06-07T23:34:04.153Z,15.90
2019-06-07T23:36:30.952Z,15.90
2019-06-07T23:38:57.784Z,15.90
2019-06-07T23:41:24.594Z,15.90
2019-06-07T23:43:51.404Z,15.90
2019-06-07T23:46:19.403Z,16.00
2019-06-07T23:48:46.403Z,16.00
2019-06-07T23:51:13.589Z,16.00
2019-06-07T23:53:40.536Z,16.00
2019-06-07T23:56:07.332Z,16.10
2019-06-07T23:58:34.148Z,16.20
